Main page
METAR-TAF:

METAR-TAF

Airports :

Thessaloniki, Greece

Thessaloniki International Airport Macedonia

latitude: 40-31N, longitude: 022-58E, elevation: 8 m

Current weather observation

The report was made 20 hours and 33 minutes ago, at 14:50 UTC
Wind 5 kt from the West
Temperature 11°C
Humidity 54%
Pressure 1012 hPa
Visibility 10 km or more
Few clouds at a height of 1000 ft
Scattered clouds at a height of 3000 ft

METAR: LGTS 201450Z 26005KT 9999 FEW010 SCT030 11/02 Q1012 NOSIG

Time: 13:23 (11:23 UTC)

Forecast

The report was made 23 minutes ago, at 11:00 UTC
Forecast valid from 20 at 12 UTC to 21 at 12 UTC
Wind 10 kt from the East
Visibility 10 km or more
Few clouds at a height of 800 ft
Broken clouds at a height of 3000 ft
Probability 40% :
Temporary
from 20 at 18 UTC to 21 at 12 UTC
Visibility: 7000 m
Scattered clouds at a height of 800 ft
Broken clouds at a height of 2500 ft
rain

TAF: LGTS 201100Z 2012/2112 10010KT 9999 FEW008 BKN030 PROB40 TEMPO 2018/2112 7000 RA SCT008 BKN025

Weather observations and forecasts of more than 4000 airports (METAR and TAF reports).

The available stations are represented by yellow and red dots on the map.

Hover mouse over dot to see the name of the station.

Then click to see weather observations and forecasts.

To change the map : click on the green buttons with a black cross to zoom in, on the green button with a dash to zoom out, or on the green arrows for adjacent maps.


METAR-TAF: